sensor_id;sensor_type;location;lat;lon;timestamp;P1;durP1;ratioP1;P2;durP2;ratioP2
22388;SDS011;11362;48.102;11.620;2023-07-30T00:00:34;4.10;;;2.20;;
22388;SDS011;11362;48.102;11.620;2023-07-30T00:03:00;5.00;;;2.10;;
22388;SDS011;11362;48.102;11.620;2023-07-30T00:05:25;2.53;;;1.80;;
22388;SDS011;11362;48.102;11.620;2023-07-30T00:07:50;4.80;;;2.17;;
22388;SDS011;11362;48.102;11.620;2023-07-30T00:10:15;5.30;;;1.80;;
22388;SDS011;11362;48.102;11.620;2023-07-30T00:12:41;2.70;;;1.47;;
22388;SDS011;11362;48.102;11.620;2023-07-30T00:15:06;2.07;;;1.80;;
22388;SDS011;11362;48.102;11.620;2023-07-30T00:20:09;4.17;;;1.70;;
22388;SDS011;11362;48.102;11.620;2023-07-30T00:22:34;4.67;;;1.80;;
22388;SDS011;11362;48.102;11.620;2023-07-30T00:24:59;3.50;;;2.17;;
22388;SDS011;11362;48.102;11.620;2023-07-30T00:27:25;3.93;;;1.90;;
22388;SDS011;11362;48.102;11.620;2023-07-30T00:29:50;3.10;;;1.47;;
22388;SDS011;11362;48.102;11.620;2023-07-30T00:32:15;4.37;;;2.00;;
22388;SDS011;11362;48.102;11.620;2023-07-30T00:34:41;5.60;;;2.20;;
22388;SDS011;11362;48.102;11.620;2023-07-30T00:37:06;2.10;;;1.83;;
22388;SDS011;11362;48.102;11.620;2023-07-30T00:39:31;3.50;;;1.80;;
22388;SDS011;11362;48.102;11.620;2023-07-30T00:41:57;4.67;;;2.47;;
22388;SDS011;11362;48.102;11.620;2023-07-30T00:47:20;3.83;;;1.80;;
22388;SDS011;11362;48.102;11.620;2023-07-30T00:49:46;2.93;;;1.70;;
22388;SDS011;11362;48.102;11.620;2023-07-30T00:52:12;3.40;;;1.80;;
22388;SDS011;11362;48.102;11.620;2023-07-30T00:54:38;2.10;;;1.47;;
22388;SDS011;11362;48.102;11.620;2023-07-30T00:57:04;2.13;;;1.50;;
22388;SDS011;11362;48.102;11.620;2023-07-30T00:59:30;2.67;;;1.53;;
22388;SDS011;11362;48.102;11.620;2023-07-30T01:01:55;6.33;;;2.17;;
22388;SDS011;11362;48.102;11.620;2023-07-30T01:04:22;3.83;;;1.80;;
22388;SDS011;11362;48.102;11.620;2023-07-30T01:06:47;2.83;;;1.40;;
22388;SDS011;11362;48.102;11.620;2023-07-30T01:09:13;1.87;;;1.30;;
22388;SDS011;11362;48.102;11.620;2023-07-30T01:14:47;3.43;;;1.70;;
22388;SDS011;11362;48.102;11.620;2023-07-30T01:17:12;1.67;;;1.13;;
22388;SDS011;11362;48.102;11.620;2023-07-30T01:19:38;1.47;;;1.37;;
22388;SDS011;11362;48.102;11.620;2023-07-30T01:22:04;1.80;;;1.33;;
22388;SDS011;11362;48.102;11.620;2023-07-30T01:24:29;2.80;;;1.37;;
22388;SDS011;11362;48.102;11.620;2023-07-30T01:27:02;3.60;;;1.50;;
22388;SDS011;11362;48.102;11.620;2023-07-30T01:29:38;1.67;;;1.37;;
22388;SDS011;11362;48.102;11.620;2023-07-30T01:32:07;1.70;;;1.27;;
22388;SDS011;11362;48.102;11.620;2023-07-30T01:34:35;4.37;;;1.37;;
22388;SDS011;11362;48.102;11.620;2023-07-30T01:37:02;2.23;;;1.47;;
22388;SDS011;11362;48.102;11.620;2023-07-30T01:42:02;1.43;;;1.00;;
22388;SDS011;11362;48.102;11.620;2023-07-30T01:44:27;1.27;;;1.17;;
22388;SDS011;11362;48.102;11.620;2023-07-30T01:46:52;1.60;;;1.50;;
22388;SDS011;11362;48.102;11.620;2023-07-30T01:49:18;2.47;;;1.47;;
22388;SDS011;11362;48.102;11.620;2023-07-30T01:51:43;2.63;;;1.60;;
22388;SDS011;11362;48.102;11.620;2023-07-30T01:54:08;1.43;;;1.07;;
22388;SDS011;11362;48.102;11.620;2023-07-30T01:56:33;2.60;;;1.40;;
22388;SDS011;11362;48.102;11.620;2023-07-30T01:58:59;1.40;;;1.30;;
22388;SDS011;11362;48.102;11.620;2023-07-30T02:01:24;1.53;;;1.30;;
22388;SDS011;11362;48.102;11.620;2023-07-30T02:03:49;1.40;;;1.30;;
22388;SDS011;11362;48.102;11.620;2023-07-30T02:08:47;1.30;;;1.20;;
22388;SDS011;11362;48.102;11.620;2023-07-30T02:11:13;2.37;;;1.30;;
22388;SDS011;11362;48.102;11.620;2023-07-30T02:13:38;1.40;;;1.30;;
22388;SDS011;11362;48.102;11.620;2023-07-30T02:16:03;1.07;;;1.00;;
22388;SDS011;11362;48.102;11.620;2023-07-30T02:18:28;1.40;;;1.30;;
22388;SDS011;11362;48.102;11.620;2023-07-30T02:20:54;1.30;;;1.20;;
22388;SDS011;11362;48.102;11.620;2023-07-30T02:23:19;1.47;;;1.37;;
22388;SDS011;11362;48.102;11.620;2023-07-30T02:25:44;2.07;;;1.20;;
22388;SDS011;11362;48.102;11.620;2023-07-30T02:28:10;1.67;;;1.40;;
22388;SDS011;11362;48.102;11.620;2023-07-30T02:30:35;3.27;;;1.57;;
22388;SDS011;11362;48.102;11.620;2023-07-30T02:36:14;1.37;;;1.10;;
22388;SDS011;11362;48.102;11.620;2023-07-30T02:38:40;1.17;;;1.10;;
22388;SDS011;11362;48.102;11.620;2023-07-30T02:41:05;1.40;;;1.20;;
22388;SDS011;11362;48.102;11.620;2023-07-30T02:43:30;2.53;;;1.23;;
22388;SDS011;11362;48.102;11.620;2023-07-30T02:45:55;1.60;;;1.07;;
22388;SDS011;11362;48.102;11.620;2023-07-30T02:48:21;1.57;;;1.00;;
22388;SDS011;11362;48.102;11.620;2023-07-30T02:50:46;1.47;;;1.30;;
22388;SDS011;11362;48.102;11.620;2023-07-30T02:53:11;1.10;;;1.00;;
22388;SDS011;11362;48.102;11.620;2023-07-30T02:55:36;1.57;;;1.20;;
22388;SDS011;11362;48.102;11.620;2023-07-30T02:58:02;1.27;;;1.00;;
22388;SDS011;11362;48.102;11.620;2023-07-30T03:03:05;1.03;;;1.00;;
22388;SDS011;11362;48.102;11.620;2023-07-30T03:05:30;0.93;;;0.93;;
22388;SDS011;11362;48.102;11.620;2023-07-30T03:07:55;1.10;;;1.00;;
22388;SDS011;11362;48.102;11.620;2023-07-30T03:10:20;0.87;;;0.87;;
22388;SDS011;11362;48.102;11.620;2023-07-30T03:12:46;1.20;;;1.10;;
22388;SDS011;11362;48.102;11.620;2023-07-30T03:15:11;2.00;;;1.17;;
22388;SDS011;11362;48.102;11.620;2023-07-30T03:17:36;1.63;;;1.23;;
22388;SDS011;11362;48.102;11.620;2023-07-30T03:20:02;1.47;;;1.10;;
22388;SDS011;11362;48.102;11.620;2023-07-30T03:22:27;1.60;;;1.17;;
22388;SDS011;11362;48.102;11.620;2023-07-30T03:24:52;1.73;;;0.90;;
22388;SDS011;11362;48.102;11.620;2023-07-30T03:29:16;1.10;;;1.03;;
22388;SDS011;11362;48.102;11.620;2023-07-30T03:31:42;1.17;;;1.17;;
22388;SDS011;11362;48.102;11.620;2023-07-30T03:34:07;1.10;;;1.00;;
22388;SDS011;11362;48.102;11.620;2023-07-30T03:36:32;1.57;;;1.47;;
22388;SDS011;11362;48.102;11.620;2023-07-30T03:38:58;1.43;;;1.17;;
22388;SDS011;11362;48.102;11.620;2023-07-30T03:41:23;1.23;;;1.23;;
22388;SDS011;11362;48.102;11.620;2023-07-30T03:43:48;1.00;;;1.00;;
22388;SDS011;11362;48.102;11.620;2023-07-30T03:46:14;1.20;;;0.97;;
22388;SDS011;11362;48.102;11.620;2023-07-30T03:48:39;1.83;;;1.07;;
22388;SDS011;11362;48.102;11.620;2023-07-30T03:51:04;1.70;;;1.30;;
22388;SDS011;11362;48.102;11.620;2023-07-30T03:56:27;0.90;;;0.90;;
22388;SDS011;11362;48.102;11.620;2023-07-30T03:58:53;1.10;;;1.03;;
22388;SDS011;11362;48.102;11.620;2023-07-30T04:01:18;1.20;;;1.10;;
22388;SDS011;11362;48.102;11.620;2023-07-30T04:03:43;1.70;;;0.90;;
22388;SDS011;11362;48.102;11.620;2023-07-30T04:06:08;0.90;;;0.87;;
22388;SDS011;11362;48.102;11.620;2023-07-30T04:08:34;1.20;;;1.10;;
22388;SDS011;11362;48.102;11.620;2023-07-30T04:10:59;0.90;;;0.90;;
22388;SDS011;11362;48.102;11.620;2023-07-30T04:13:24;1.13;;;1.13;;
22388;SDS011;11362;48.102;11.620;2023-07-30T04:15:49;1.53;;;1.50;;
22388;SDS011;11362;48.102;11.620;2023-07-30T04:18:15;1.10;;;0.90;;
22388;SDS011;11362;48.102;11.620;2023-07-30T04:23:37;0.97;;;0.97;;
22388;SDS011;11362;48.102;11.620;2023-07-30T04:26:02;1.03;;;0.97;;
22388;SDS011;11362;48.102;11.620;2023-07-30T04:28:27;1.20;;;1.03;;
22388;SDS011;11362;48.102;11.620;2023-07-30T04:30:52;1.13;;;1.00;;
22388;SDS011;11362;48.102;11.620;2023-07-30T04:33:18;1.00;;;1.00;;
22388;SDS011;11362;48.102;11.620;2023-07-30T04:35:43;1.00;;;1.00;;
22388;SDS011;11362;48.102;11.620;2023-07-30T04:38:08;1.27;;;1.17;;
22388;SDS011;11362;48.102;11.620;2023-07-30T04:40:34;1.10;;;1.10;;
22388;SDS011;11362;48.102;11.620;2023-07-30T04:42:59;1.03;;;1.03;;
22388;SDS011;11362;48.102;11.620;2023-07-30T04:45:24;0.90;;;0.90;;
22388;SDS011;11362;48.102;11.620;2023-07-30T04:47:49;0.90;;;0.90;;
22388;SDS011;11362;48.102;11.620;2023-07-30T04:50:15;1.20;;;1.10;;
22388;SDS011;11362;48.102;11.620;2023-07-30T04:55:12;1.27;;;1.23;;
22388;SDS011;11362;48.102;11.620;2023-07-30T04:57:38;1.60;;;1.50;;
22388;SDS011;11362;48.102;11.620;2023-07-30T05:00:03;0.97;;;0.97;;
22388;SDS011;11362;48.102;11.620;2023-07-30T05:02:29;0.97;;;0.97;;
22388;SDS011;11362;48.102;11.620;2023-07-30T05:04:54;0.70;;;0.70;;
22388;SDS011;11362;48.102;11.620;2023-07-30T05:07:20;1.40;;;1.30;;
22388;SDS011;11362;48.102;11.620;2023-07-30T05:09:45;1.00;;;1.00;;
22388;SDS011;11362;48.102;11.620;2023-07-30T05:12:10;1.17;;;1.17;;
22388;SDS011;11362;48.102;11.620;2023-07-30T05:14:36;1.07;;;1.03;;
22388;SDS011;11362;48.102;11.620;2023-07-30T05:17:01;1.00;;;1.00;;
22388;SDS011;11362;48.102;11.620;2023-07-30T05:21:58;1.00;;;1.00;;
22388;SDS011;11362;48.102;11.620;2023-07-30T05:24:24;1.27;;;1.20;;
22388;SDS011;11362;48.102;11.620;2023-07-30T05:26:49;1.60;;;1.50;;
22388;SDS011;11362;48.102;11.620;2023-07-30T05:29:14;1.00;;;1.00;;
22388;SDS011;11362;48.102;11.620;2023-07-30T05:31:39;1.43;;;0.80;;
22388;SDS011;11362;48.102;11.620;2023-07-30T05:34:05;1.03;;;1.03;;
22388;SDS011;11362;48.102;11.620;2023-07-30T05:36:30;1.10;;;1.10;;
22388;SDS011;11362;48.102;11.620;2023-07-30T05:38:55;0.93;;;0.93;;
22388;SDS011;11362;48.102;11.620;2023-07-30T05:41:21;1.23;;;1.10;;
22388;SDS011;11362;48.102;11.620;2023-07-30T05:43:46;0.87;;;0.87;;
22388;SDS011;11362;48.102;11.620;2023-07-30T05:48:55;1.00;;;1.00;;
22388;SDS011;11362;48.102;11.620;2023-07-30T05:51:20;1.03;;;1.00;;
22388;SDS011;11362;48.102;11.620;2023-07-30T05:53:46;1.10;;;1.10;;
22388;SDS011;11362;48.102;11.620;2023-07-30T05:56:11;0.80;;;0.80;;
22388;SDS011;11362;48.102;11.620;2023-07-30T05:58:36;1.07;;;1.07;;
22388;SDS011;11362;48.102;11.620;2023-07-30T06:01:01;1.00;;;1.00;;
22388;SDS011;11362;48.102;11.620;2023-07-30T06:03:27;1.67;;;1.20;;
22388;SDS011;11362;48.102;11.620;2023-07-30T06:05:52;0.93;;;0.93;;
22388;SDS011;11362;48.102;11.620;2023-07-30T06:08:17;1.40;;;1.30;;
22388;SDS011;11362;48.102;11.620;2023-07-30T06:10:42;0.97;;;0.97;;
22388;SDS011;11362;48.102;11.620;2023-07-30T06:16:22;1.23;;;1.10;;
22388;SDS011;11362;48.102;11.620;2023-07-30T06:18:47;1.23;;;1.13;;
22388;SDS011;11362;48.102;11.620;2023-07-30T06:21:13;1.13;;;1.03;;
22388;SDS011;11362;48.102;11.620;2023-07-30T06:23:38;1.57;;;1.30;;
22388;SDS011;11362;48.102;11.620;2023-07-30T06:26:03;2.03;;;1.30;;
22388;SDS011;11362;48.102;11.620;2023-07-30T06:28:29;15.33;;;2.33;;
22388;SDS011;11362;48.102;11.620;2023-07-30T06:30:54;4.63;;;1.67;;
22388;SDS011;11362;48.102;11.620;2023-07-30T06:33:19;10.67;;;1.93;;
22388;SDS011;11362;48.102;11.620;2023-07-30T06:35:45;21.57;;;2.10;;
22388;SDS011;11362;48.102;11.620;2023-07-30T06:38:10;7.63;;;2.07;;
22388;SDS011;11362;48.102;11.620;2023-07-30T06:43:07;10.30;;;2.83;;
22388;SDS011;11362;48.102;11.620;2023-07-30T06:45:33;10.87;;;1.93;;
22388;SDS011;11362;48.102;11.620;2023-07-30T06:47:58;6.77;;;2.00;;
22388;SDS011;11362;48.102;11.620;2023-07-30T06:50:23;13.53;;;2.07;;
22388;SDS011;11362;48.102;11.620;2023-07-30T06:52:49;8.63;;;2.57;;
22388;SDS011;11362;48.102;11.620;2023-07-30T06:55:14;6.40;;;2.13;;
22388;SDS011;11362;48.102;11.620;2023-07-30T06:57:39;4.13;;;1.57;;
22388;SDS011;11362;48.102;11.620;2023-07-30T07:00:05;5.53;;;1.80;;
22388;SDS011;11362;48.102;11.620;2023-07-30T07:02:30;3.73;;;1.53;;
22388;SDS011;11362;48.102;11.620;2023-07-30T07:04:56;9.67;;;2.40;;
22388;SDS011;11362;48.102;11.620;2023-07-30T07:09:03;6.23;;;2.03;;
22388;SDS011;11362;48.102;11.620;2023-07-30T07:11:28;10.80;;;2.67;;
22388;SDS011;11362;48.102;11.620;2023-07-30T07:13:54;5.43;;;1.83;;
22388;SDS011;11362;48.102;11.620;2023-07-30T07:16:19;7.97;;;2.20;;
22388;SDS011;11362;48.102;11.620;2023-07-30T07:18:44;6.20;;;1.90;;
22388;SDS011;11362;48.102;11.620;2023-07-30T07:21:10;2.93;;;1.87;;
22388;SDS011;11362;48.102;11.620;2023-07-30T07:23:35;5.63;;;2.43;;
22388;SDS011;11362;48.102;11.620;2023-07-30T07:26:01;5.93;;;2.00;;
22388;SDS011;11362;48.102;11.620;2023-07-30T07:28:26;3.73;;;1.73;;
22388;SDS011;11362;48.102;11.620;2023-07-30T07:30:51;4.23;;;1.67;;
22388;SDS011;11362;48.102;11.620;2023-07-30T07:36:14;1.93;;;1.47;;
22388;SDS011;11362;48.102;11.620;2023-07-30T07:38:39;2.60;;;1.90;;
22388;SDS011;11362;48.102;11.620;2023-07-30T07:41:05;4.43;;;1.80;;
22388;SDS011;11362;48.102;11.620;2023-07-30T07:43:30;2.60;;;1.50;;
22388;SDS011;11362;48.102;11.620;2023-07-30T07:45:55;2.13;;;1.97;;
22388;SDS011;11362;48.102;11.620;2023-07-30T07:48:21;4.23;;;1.67;;
22388;SDS011;11362;48.102;11.620;2023-07-30T07:50:46;3.77;;;1.67;;
22388;SDS011;11362;48.102;11.620;2023-07-30T07:53:11;8.13;;;1.70;;
22388;SDS011;11362;48.102;11.620;2023-07-30T07:55:37;3.60;;;1.47;;
22388;SDS011;11362;48.102;11.620;2023-07-30T07:58:02;4.80;;;1.70;;
22388;SDS011;11362;48.102;11.620;2023-07-30T08:03:25;3.50;;;2.27;;
22388;SDS011;11362;48.102;11.620;2023-07-30T08:05:50;5.20;;;2.10;;
22388;SDS011;11362;48.102;11.620;2023-07-30T08:08:16;1.70;;;1.60;;
22388;SDS011;11362;48.102;11.620;2023-07-30T08:10:41;2.83;;;1.90;;
22388;SDS011;11362;48.102;11.620;2023-07-30T08:13:06;2.10;;;1.90;;
22388;SDS011;11362;48.102;11.620;2023-07-30T08:15:32;1.90;;;1.67;;
22388;SDS011;11362;48.102;11.620;2023-07-30T08:17:57;8.23;;;2.00;;
22388;SDS011;11362;48.102;11.620;2023-07-30T08:20:23;6.40;;;2.03;;
22388;SDS011;11362;48.102;11.620;2023-07-30T08:22:48;4.93;;;2.00;;
22388;SDS011;11362;48.102;11.620;2023-07-30T08:25:13;8.23;;;2.07;;
22388;SDS011;11362;48.102;11.620;2023-07-30T08:30:22;3.63;;;1.90;;
22388;SDS011;11362;48.102;11.620;2023-07-30T08:32:47;1.87;;;1.63;;
22388;SDS011;11362;48.102;11.620;2023-07-30T08:35:12;15.57;;;3.23;;
22388;SDS011;11362;48.102;11.620;2023-07-30T08:37:38;7.37;;;2.77;;
22388;SDS011;11362;48.102;11.620;2023-07-30T08:40:03;13.63;;;3.67;;
22388;SDS011;11362;48.102;11.620;2023-07-30T08:42:29;11.53;;;3.00;;
22388;SDS011;11362;48.102;11.620;2023-07-30T08:44:54;7.77;;;2.40;;
22388;SDS011;11362;48.102;11.620;2023-07-30T08:47:20;11.03;;;2.93;;
22388;SDS011;11362;48.102;11.620;2023-07-30T08:49:45;20.83;;;3.63;;
22388;SDS011;11362;48.102;11.620;2023-07-30T08:54:48;12.00;;;2.43;;
22388;SDS011;11362;48.102;11.620;2023-07-30T08:57:14;17.20;;;3.43;;
22388;SDS011;11362;48.102;11.620;2023-07-30T08:59:43;18.90;;;3.03;;
22388;SDS011;11362;48.102;11.620;2023-07-30T09:02:26;11.57;;;2.63;;
22388;SDS011;11362;48.102;11.620;2023-07-30T09:04:56;17.17;;;2.60;;
22388;SDS011;11362;48.102;11.620;2023-07-30T09:07:24;13.37;;;3.30;;
22388;SDS011;11362;48.102;11.620;2023-07-30T09:09:50;14.90;;;3.40;;
22388;SDS011;11362;48.102;11.620;2023-07-30T09:12:16;7.87;;;2.47;;
22388;SDS011;11362;48.102;11.620;2023-07-30T09:14:41;23.53;;;3.63;;
22388;SDS011;11362;48.102;11.620;2023-07-30T09:17:07;23.40;;;3.43;;
22388;SDS011;11362;48.102;11.620;2023-07-30T09:21:44;13.40;;;3.00;;
22388;SDS011;11362;48.102;11.620;2023-07-30T09:24:10;16.00;;;3.63;;
22388;SDS011;11362;48.102;11.620;2023-07-30T09:26:45;14.13;;;2.93;;
22388;SDS011;11362;48.102;11.620;2023-07-30T09:29:11;13.00;;;2.70;;
22388;SDS011;11362;48.102;11.620;2023-07-30T09:31:49;13.10;;;3.33;;
22388;SDS011;11362;48.102;11.620;2023-07-30T09:34:16;11.33;;;3.23;;
22388;SDS011;11362;48.102;11.620;2023-07-30T09:36:44;14.50;;;3.33;;
22388;SDS011;11362;48.102;11.620;2023-07-30T09:39:16;15.67;;;3.30;;
22388;SDS011;11362;48.102;11.620;2023-07-30T09:41:52;9.10;;;3.73;;
22388;SDS011;11362;48.102;11.620;2023-07-30T09:44:24;9.97;;;3.47;;
22388;SDS011;11362;48.102;11.620;2023-07-30T09:48:11;13.67;;;3.17;;
22388;SDS011;11362;48.102;11.620;2023-07-30T09:50:36;11.43;;;3.03;;
22388;SDS011;11362;48.102;11.620;2023-07-30T09:53:02;7.70;;;2.80;;
22388;SDS011;11362;48.102;11.620;2023-07-30T09:55:28;9.07;;;2.90;;
22388;SDS011;11362;48.102;11.620;2023-07-30T09:57:54;9.10;;;3.33;;
22388;SDS011;11362;48.102;11.620;2023-07-30T10:00:20;12.00;;;3.50;;
22388;SDS011;11362;48.102;11.620;2023-07-30T10:02:46;12.90;;;2.77;;
22388;SDS011;11362;48.102;11.620;2023-07-30T10:05:17;13.57;;;2.67;;
22388;SDS011;11362;48.102;11.620;2023-07-30T10:07:57;9.20;;;2.73;;
22388;SDS011;11362;48.102;11.620;2023-07-30T10:10:28;8.43;;;2.80;;
22388;SDS011;11362;48.102;11.620;2023-07-30T10:15:26;7.90;;;2.43;;
22388;SDS011;11362;48.102;11.620;2023-07-30T10:17:52;11.17;;;3.10;;
22388;SDS011;11362;48.102;11.620;2023-07-30T10:20:27;6.33;;;2.30;;
22388;SDS011;11362;48.102;11.620;2023-07-30T10:22:54;13.97;;;2.83;;
22388;SDS011;11362;48.102;11.620;2023-07-30T10:25:21;10.10;;;2.87;;
22388;SDS011;11362;48.102;11.620;2023-07-30T10:27:49;7.97;;;2.60;;
22388;SDS011;11362;48.102;11.620;2023-07-30T10:30:16;5.97;;;2.40;;
22388;SDS011;11362;48.102;11.620;2023-07-30T10:33:01;5.13;;;2.07;;
22388;SDS011;11362;48.102;11.620;2023-07-30T10:35:41;8.37;;;2.20;;
22388;SDS011;11362;48.102;11.620;2023-07-30T10:41:09;10.50;;;2.70;;
22388;SDS011;11362;48.102;11.620;2023-07-30T10:43:41;6.70;;;1.97;;
22388;SDS011;11362;48.102;11.620;2023-07-30T10:46:12;7.97;;;2.63;;
22388;SDS011;11362;48.102;11.620;2023-07-30T10:48:40;7.33;;;2.20;;
22388;SDS011;11362;48.102;11.620;2023-07-30T10:51:11;5.67;;;2.03;;
22388;SDS011;11362;48.102;11.620;2023-07-30T10:53:38;2.77;;;1.73;;
22388;SDS011;11362;48.102;11.620;2023-07-30T10:56:04;10.17;;;2.30;;
22388;SDS011;11362;48.102;11.620;2023-07-30T10:58:30;5.43;;;2.27;;
22388;SDS011;11362;48.102;11.620;2023-07-30T11:00:56;7.03;;;2.30;;
22388;SDS011;11362;48.102;11.620;2023-07-30T11:03:25;3.93;;;1.97;;
22388;SDS011;11362;48.102;11.620;2023-07-30T11:08:33;4.40;;;1.90;;
22388;SDS011;11362;48.102;11.620;2023-07-30T11:10:58;6.27;;;2.30;;
22388;SDS011;11362;48.102;11.620;2023-07-30T11:13:23;4.70;;;2.00;;
22388;SDS011;11362;48.102;11.620;2023-07-30T11:15:49;6.87;;;1.97;;
22388;SDS011;11362;48.102;11.620;2023-07-30T11:18:14;3.77;;;1.63;;
22388;SDS011;11362;48.102;11.620;2023-07-30T11:20:39;4.90;;;1.90;;
22388;SDS011;11362;48.102;11.620;2023-07-30T11:23:17;3.97;;;1.70;;
22388;SDS011;11362;48.102;11.620;2023-07-30T11:25:48;3.23;;;1.57;;
22388;SDS011;11362;48.102;11.620;2023-07-30T11:30:53;4.03;;;1.90;;
22388;SDS011;11362;48.102;11.620;2023-07-30T11:35:55;4.63;;;2.07;;
22388;SDS011;11362;48.102;11.620;2023-07-30T11:38:22;1.87;;;1.60;;
22388;SDS011;11362;48.102;11.620;2023-07-30T11:40:54;5.07;;;1.90;;
22388;SDS011;11362;48.102;11.620;2023-07-30T11:43:20;4.73;;;1.77;;
22388;SDS011;11362;48.102;11.620;2023-07-30T11:45:47;3.33;;;1.77;;
22388;SDS011;11362;48.102;11.620;2023-07-30T11:48:12;2.60;;;1.67;;
22388;SDS011;11362;48.102;11.620;2023-07-30T11:50:44;3.50;;;1.80;;
22388;SDS011;11362;48.102;11.620;2023-07-30T11:53:11;5.73;;;1.87;;
22388;SDS011;11362;48.102;11.620;2023-07-30T11:55:39;2.77;;;1.67;;
22388;SDS011;11362;48.102;11.620;2023-07-30T11:58:06;3.53;;;1.50;;
22388;SDS011;11362;48.102;11.620;2023-07-30T12:03:37;1.70;;;1.37;;
22388;SDS011;11362;48.102;11.620;2023-07-30T12:06:05;2.83;;;1.40;;
22388;SDS011;11362;48.102;11.620;2023-07-30T12:08:31;2.13;;;1.40;;
22388;SDS011;11362;48.102;11.620;2023-07-30T12:11:02;2.57;;;1.43;;
22388;SDS011;11362;48.102;11.620;2023-07-30T12:13:28;2.53;;;1.53;;
22388;SDS011;11362;48.102;11.620;2023-07-30T12:15:54;2.37;;;1.60;;
22388;SDS011;11362;48.102;11.620;2023-07-30T12:18:20;2.40;;;1.50;;
22388;SDS011;11362;48.102;11.620;2023-07-30T12:20:47;1.70;;;1.30;;
22388;SDS011;11362;48.102;11.620;2023-07-30T12:23:13;1.87;;;1.30;;
22388;SDS011;11362;48.102;11.620;2023-07-30T12:25:38;2.33;;;1.30;;
22388;SDS011;11362;48.102;11.620;2023-07-30T12:30:33;2.43;;;1.60;;
22388;SDS011;11362;48.102;11.620;2023-07-30T12:32:58;1.90;;;1.20;;
22388;SDS011;11362;48.102;11.620;2023-07-30T12:35:24;2.07;;;1.27;;
22388;SDS011;11362;48.102;11.620;2023-07-30T12:37:49;1.60;;;1.50;;
22388;SDS011;11362;48.102;11.620;2023-07-30T12:40:15;3.67;;;1.40;;
22388;SDS011;11362;48.102;11.620;2023-07-30T12:42:41;1.50;;;1.37;;
22388;SDS011;11362;48.102;11.620;2023-07-30T12:45:06;1.57;;;1.27;;
22388;SDS011;11362;48.102;11.620;2023-07-30T12:47:32;2.27;;;1.27;;
22388;SDS011;11362;48.102;11.620;2023-07-30T12:49:57;2.40;;;1.53;;
22388;SDS011;11362;48.102;11.620;2023-07-30T12:52:23;1.67;;;1.37;;
22388;SDS011;11362;48.102;11.620;2023-07-30T12:57:44;1.40;;;1.30;;
22388;SDS011;11362;48.102;11.620;2023-07-30T13:00:10;1.60;;;1.17;;
22388;SDS011;11362;48.102;11.620;2023-07-30T13:02:36;1.97;;;1.40;;
22388;SDS011;11362;48.102;11.620;2023-07-30T13:05:01;1.70;;;1.17;;
22388;SDS011;11362;48.102;11.620;2023-07-30T13:07:27;1.83;;;1.40;;
22388;SDS011;11362;48.102;11.620;2023-07-30T13:10:02;1.30;;;1.20;;
22388;SDS011;11362;48.102;11.620;2023-07-30T13:12:28;1.63;;;1.53;;
22388;SDS011;11362;48.102;11.620;2023-07-30T13:14:54;1.40;;;1.30;;
22388;SDS011;11362;48.102;11.620;2023-07-30T13:17:19;1.20;;;1.10;;
22388;SDS011;11362;48.102;11.620;2023-07-30T13:19:44;2.73;;;1.10;;
22388;SDS011;11362;48.102;11.620;2023-07-30T13:23:40;1.87;;;1.27;;
22388;SDS011;11362;48.102;11.620;2023-07-30T13:26:05;2.03;;;1.17;;
22388;SDS011;11362;48.102;11.620;2023-07-30T13:28:30;1.40;;;1.30;;
22388;SDS011;11362;48.102;11.620;2023-07-30T13:30:56;1.40;;;1.30;;
22388;SDS011;11362;48.102;11.620;2023-07-30T13:33:21;1.17;;;1.17;;
22388;SDS011;11362;48.102;11.620;2023-07-30T13:35:46;1.63;;;1.13;;
22388;SDS011;11362;48.102;11.620;2023-07-30T13:38:12;1.00;;;1.00;;
22388;SDS011;11362;48.102;11.620;2023-07-30T13:40:37;1.20;;;1.13;;
22388;SDS011;11362;48.102;11.620;2023-07-30T13:43:02;1.30;;;1.20;;
22388;SDS011;11362;48.102;11.620;2023-07-30T13:47:41;1.47;;;1.33;;
22388;SDS011;11362;48.102;11.620;2023-07-30T13:50:06;1.27;;;1.17;;
22388;SDS011;11362;48.102;11.620;2023-07-30T13:52:32;1.40;;;1.30;;
22388;SDS011;11362;48.102;11.620;2023-07-30T13:54:57;1.00;;;0.93;;
22388;SDS011;11362;48.102;11.620;2023-07-30T13:57:23;1.30;;;1.20;;
22388;SDS011;11362;48.102;11.620;2023-07-30T13:59:49;1.63;;;1.07;;
22388;SDS011;11362;48.102;11.620;2023-07-30T14:02:14;1.03;;;1.03;;
22388;SDS011;11362;48.102;11.620;2023-07-30T14:04:39;2.07;;;1.30;;
22388;SDS011;11362;48.102;11.620;2023-07-30T14:07:05;1.30;;;1.20;;
22388;SDS011;11362;48.102;11.620;2023-07-30T14:11:52;1.53;;;1.43;;
22388;SDS011;11362;48.102;11.620;2023-07-30T14:14:18;1.40;;;1.20;;
22388;SDS011;11362;48.102;11.620;2023-07-30T14:16:43;1.67;;;1.57;;
22388;SDS011;11362;48.102;11.620;2023-07-30T14:19:08;1.17;;;1.17;;
22388;SDS011;11362;48.102;11.620;2023-07-30T14:21:33;0.97;;;0.97;;
22388;SDS011;11362;48.102;11.620;2023-07-30T14:23:59;1.43;;;1.20;;
22388;SDS011;11362;48.102;11.620;2023-07-30T14:26:24;1.07;;;0.90;;
22388;SDS011;11362;48.102;11.620;2023-07-30T14:28:49;2.00;;;1.03;;
22388;SDS011;11362;48.102;11.620;2023-07-30T14:31:15;1.53;;;1.43;;
22388;SDS011;11362;48.102;11.620;2023-07-30T14:36:19;1.10;;;1.00;;
22388;SDS011;11362;48.102;11.620;2023-07-30T14:38:44;1.97;;;1.07;;
22388;SDS011;11362;48.102;11.620;2023-07-30T14:41:09;1.03;;;1.03;;
22388;SDS011;11362;48.102;11.620;2023-07-30T14:43:35;1.17;;;1.07;;
22388;SDS011;11362;48.102;11.620;2023-07-30T14:46:00;1.43;;;1.33;;
22388;SDS011;11362;48.102;11.620;2023-07-30T14:48:25;1.50;;;1.10;;
22388;SDS011;11362;48.102;11.620;2023-07-30T14:50:50;1.57;;;1.20;;
22388;SDS011;11362;48.102;11.620;2023-07-30T14:53:16;2.27;;;1.00;;
22388;SDS011;11362;48.102;11.620;2023-07-30T14:55:41;1.07;;;1.07;;
22388;SDS011;11362;48.102;11.620;2023-07-30T14:58:06;1.20;;;1.10;;
22388;SDS011;11362;48.102;11.620;2023-07-30T15:01:30;1.20;;;1.10;;
22388;SDS011;11362;48.102;11.620;2023-07-30T15:03:55;1.23;;;1.13;;
22388;SDS011;11362;48.102;11.620;2023-07-30T15:06:21;0.93;;;0.93;;
22388;SDS011;11362;48.102;11.620;2023-07-30T15:08:47;1.00;;;1.00;;
22388;SDS011;11362;48.102;11.620;2023-07-30T15:11:12;1.20;;;1.20;;
22388;SDS011;11362;48.102;11.620;2023-07-30T15:13:38;1.00;;;1.00;;
22388;SDS011;11362;48.102;11.620;2023-07-30T15:16:03;1.30;;;1.17;;
22388;SDS011;11362;48.102;11.620;2023-07-30T15:18:28;1.33;;;1.23;;
22388;SDS011;11362;48.102;11.620;2023-07-30T15:20:53;1.40;;;1.30;;
22388;SDS011;11362;48.102;11.620;2023-07-30T15:23:19;1.03;;;1.03;;
22388;SDS011;11362;48.102;11.620;2023-07-30T15:28:26;1.00;;;1.00;;
22388;SDS011;11362;48.102;11.620;2023-07-30T15:30:51;1.60;;;1.23;;
22388;SDS011;11362;48.102;11.620;2023-07-30T15:33:17;1.60;;;1.13;;
22388;SDS011;11362;48.102;11.620;2023-07-30T15:35:42;1.73;;;1.17;;
22388;SDS011;11362;48.102;11.620;2023-07-30T15:38:07;1.13;;;0.80;;
22388;SDS011;11362;48.102;11.620;2023-07-30T15:40:33;1.00;;;1.00;;
22388;SDS011;11362;48.102;11.620;2023-07-30T15:42:58;0.80;;;0.80;;
22388;SDS011;11362;48.102;11.620;2023-07-30T15:45:24;1.43;;;1.33;;
22388;SDS011;11362;48.102;11.620;2023-07-30T15:47:49;1.10;;;1.10;;
22388;SDS011;11362;48.102;11.620;2023-07-30T15:50:15;1.03;;;1.03;;
22388;SDS011;11362;48.102;11.620;2023-07-30T15:55:23;1.10;;;1.00;;
22388;SDS011;11362;48.102;11.620;2023-07-30T15:57:48;2.00;;;1.10;;
22388;SDS011;11362;48.102;11.620;2023-07-30T16:00:13;1.30;;;1.23;;